AirNav   Pilot Hours Calculator
 
 1819 users online  

12A Arkavalley Airport
Greenbrier, Arkansas, USA

GOING TO GREENBRIER?


FAA INFORMATION EFFECTIVE 26 JANUARY 2023

Location

FAA Identifier: 12A
Lat/Long: 35-10-39.1066N 092-20-06.2411W
35-10.651777N 092-20.104018W
35.1775296,-92.3350670
(estimated)
Elevation: 329 ft. / 100 m (estimated)
Variation: 02E (2000)
From city: 5 miles SE of GREENBRIER, AR
Time zone: UTC -6 (UTC -5 during Daylight Saving Time)
Zip code: 72058

Airport Operations

Airport use: Open to the public
Activation date: 06/2002
Control tower: no
ARTCC: MEMPHIS CENTER
FSS: JONESBORO FLIGHT SERVICE STATION
NOTAMs facility: JBR (NOTAM-D service available)
Attendance: UNATNDD
Wind indicator: yes
Segmented circle: no
Lights: ACTVT MIRL RY 18/36 - CTAF.

Airport Communications

CTAF/UNICOM: 122.8
WX AWOS-2 at CXW (14 nm SW): 118.775 (501-358-6209)

Nearby radio navigation aids

VOR radial/distance  VOR name  Freq  Var
LITr341/30.9LITTLE ROCK VORTAC113.9005E

 
NDB name  Hdg/Dist  Freq  Var  ID
RUSSELLVILLE094/37.537903ERUE .-. ..- .

Airport Services

Runway Information

Runway 18/36

Dimensions: 3133 x 40 ft. / 955 x 12 m
Surface: asphalt, in good condition
Runway edge lights: medium intensity
RUNWAY 18  RUNWAY 36
Latitude: 35-10.909998N35-10.393555N
Longitude: 092-20.097617W092-20.110402W
Traffic pattern: leftleft
Runway heading: 179 magnetic, 181 true359 magnetic, 001 true
Markings: basic, in fair conditionbasic, in fair condition
Obstructions: 70 ft. tree, 240 ft. from runway, 95 ft. right of centerlinenone
4 FT FENCE 100 FT FM THLD 50 FT L&R.

Airport Ownership and Management from official FAA records

Ownership: Privately-owned
Owner: ARKAVALLEY AIRPORT PROP. OWN. ASSO
39 DOWNWIND AVENUE
GREENBRIER, AR 72058
Phone 501-470-5444
Manager: BILL HOOTEN
52 CESSNA AVE.
GREENBRIER, AR 72058
Phone 501-514-0204

Airport Operational Statistics

Aircraft based on the field: 23
Single engine airplanes: 20
Multi engine airplanes: 3
    
Aircraft operations: avg 25/week *
77% local general aviation
15% transient general aviation
8% military
* for 12-month period ending 31 March 2021

Additional Remarks

RISING TERRAIN NORTH END.
FOR CD CTC LITTLE ROCK APCH 501-379-2908 OR LITTLE ROCK ATCT 501-379-2911.

Instrument Procedures

There are no published instrument procedures at 12A.

Some nearby airports with instrument procedures:

KCXW - Conway Regional Airport (14 nm SW)
KLRF - Little Rock Air Force Base (18 nm SE)
KBDQ - Morrilton Municipal Airport (19 nm W)
KORK - North Little Rock Municipal Airport (21 nm S)
KHBZ - Heber Springs Municipal Airport (26 nm NE)
 
Loc | Ops | Rwys | IFR | FBO | Links
Com | Nav | Svcs | Stats | Notes
Area around 12A (Arkavalley Airport)
 
Road maps at: MapQuest Bing Google
 
Aerial photo
WARNING: Photo may not be current or correct
Aerial photo of 12A (Arkavalley Airport)
Photo courtesy of the Arkansas Department of Aeronautics
Taken in the Spring of 2007

Do you have a better or more recent aerial photo of Arkavalley Airport that you would like to share? If so, please send us your photo.

 
Sectional chart

 
Airport distance calculator
Flying to Arkavalley Airport? Find the distance to fly.

From to 12A

Sunrise and sunset
Times for 06-Feb-2023
 Local
(UTC-6)
 Zulu
(UTC)
Morning civil twilight06:3912:39
Sunrise07:0513:05
Sunset17:4223:42
Evening civil twilight18:0800:08

Current date and time
Zulu (UTC)  06-Feb-2023 16:23:49
Local (UTC-6)  06-Feb-2023 10:23:49
 
METAR
KCXW 
14nm SW 
061555Z AUTO 16007KT 7SM SCT037 OVC045 12/12 A3013 RMK A01
KLRF 
18nm SE 
061555Z 15006KT 10SM BKN038 12/11 A3012 RMK AO2A SLP203 T01160114
KORK 
21nm S 
061555Z AUTO 17005KT 10SM BKN039 12/11 A3013 RMK AO2
KCCA 
26nm N 
061555Z AUTO 00000KT 10SM FEW021 BKN041 07/05 A3014 RMK AO2 TSNO
KLIT 
27nm S 
061553Z 17008KT 9SM BKN043 13/09 A3015 RMK AO2 SLP212 T01280089
TAF
KLRF 
18nm SE 
061347Z 0613/0713 VRB04KT 3200 BR SCT001 BKN030 QNH3010INS TEMPO 0613/0615 0800 FG BKN001 BECMG 0615/0616 16010KT 9999 NSW BKN025 BKN060 QNH3000INS BECMG 0622/0623 18010KT 9999 BKN050 QNH3000INS BECMG 0703/0704 17010KT 9999 BKN020 BKN040 QNH3001INS TX15/0622Z TN02/0613Z
NOTAMs
Click for the latest NOTAMs
NOTAMs are issued by the DoD/FAA and will open in a separate window not controlled by AirNav.

 

 
 

Would you like to see your business listed on this page?

 If your business provides an interesting product or service to pilots, flight crews, aircraft, or users of the Arkavalley Airport, you should consider listing it here.  To start the listing process, click on the button below
 
Add a business
 

Other Pages about Arkavalley Airport

Update a link
 
Copyright © AirNav, LLC. All rights reserved. Privacy Policy  Contact